createdAt,value
2023-03-12T00:00:22.888Z,2.23
2023-03-12T00:01:22.898Z,2.20
2023-03-12T00:02:22.959Z,2.20
2023-03-12T00:03:22.868Z,2.27
2023-03-12T00:04:22.928Z,2.30
2023-03-12T00:05:22.880Z,2.27
2023-03-12T00:06:22.816Z,2.19
2023-03-12T00:07:22.797Z,2.27
2023-03-12T00:08:22.785Z,2.20
2023-03-12T00:09:22.779Z,2.31
2023-03-12T00:10:22.783Z,2.30
2023-03-12T00:11:22.754Z,2.34
2023-03-12T00:12:22.904Z,2.27
2023-03-12T00:13:22.730Z,2.19
2023-03-12T00:14:22.721Z,2.27
2023-03-12T00:15:22.710Z,2.26
2023-03-12T00:16:22.787Z,2.31
2023-03-12T00:17:22.723Z,2.27
2023-03-12T00:18:22.677Z,2.22
2023-03-12T00:19:22.666Z,2.20
2023-03-12T00:20:22.703Z,2.20
2023-03-12T00:21:22.649Z,2.27
2023-03-12T00:22:22.640Z,2.17
2023-03-12T00:23:22.631Z,2.23
2023-03-12T00:24:22.632Z,2.23
2023-03-12T00:25:22.624Z,2.20
2023-03-12T00:26:22.598Z,2.26
2023-03-12T00:27:22.584Z,2.22
2023-03-12T00:28:22.571Z,2.26
2023-03-12T00:29:22.566Z,2.23
2023-03-12T00:30:22.589Z,2.16
2023-03-12T00:31:22.602Z,2.23
2023-03-12T00:32:22.601Z,2.22
2023-03-12T00:33:22.514Z,2.23
2023-03-12T00:34:22.504Z,2.23
2023-03-12T00:35:22.527Z,2.26
2023-03-12T00:36:22.501Z,2.26
2023-03-12T00:37:22.480Z,2.20
2023-03-12T00:38:22.466Z,2.26
2023-03-12T00:39:22.457Z,2.26
2023-03-12T00:40:22.460Z,2.22
2023-03-12T00:41:22.430Z,2.23
2023-03-12T00:42:22.422Z,2.22
2023-03-12T00:43:22.429Z,2.26
2023-03-12T00:44:22.395Z,2.26
2023-03-12T00:45:22.415Z,2.31
2023-03-12T00:46:22.447Z,2.30
2023-03-12T00:47:22.361Z,2.31
2023-03-12T00:48:22.363Z,2.31
2023-03-12T00:49:22.350Z,2.33
2023-03-12T00:50:22.355Z,2.27
2023-03-12T00:51:22.325Z,2.22
2023-03-12T00:52:22.329Z,2.31
2023-03-12T00:53:22.304Z,2.33
2023-03-12T00:54:22.293Z,2.34
2023-03-12T00:55:22.300Z,2.33
2023-03-12T00:56:22.274Z,2.28
2023-03-12T00:57:22.267Z,2.31
2023-03-12T00:58:22.257Z,2.31
2023-03-12T00:59:22.239Z,2.23
2023-03-12T01:00:22.245Z,2.30
2023-03-12T01:01:22.227Z,2.31
2023-03-12T01:02:22.254Z,2.23
2023-03-12T01:03:22.203Z,2.28
2023-03-12T01:04:22.274Z,2.20
2023-03-12T01:05:22.191Z,2.20
2023-03-12T01:06:22.171Z,2.23
2023-03-12T01:07:22.150Z,2.28
2023-03-12T01:08:22.176Z,2.34
2023-03-12T01:09:22.136Z,2.38
2023-03-12T01:10:22.152Z,2.37
2023-03-12T01:11:22.120Z,2.46
2023-03-12T01:12:22.123Z,2.38
2023-03-12T01:13:22.097Z,2.40
2023-03-12T01:14:22.080Z,2.38
2023-03-12T01:15:22.087Z,2.48
2023-03-12T01:16:22.166Z,2.46
2023-03-12T01:17:22.051Z,2.49
2023-03-12T01:18:22.049Z,2.51
2023-03-12T01:19:22.029Z,2.51
2023-03-12T01:20:22.033Z,2.48
2023-03-12T01:21:22.016Z,2.56
2023-03-12T01:22:22.003Z,2.61
2023-03-12T01:23:21.991Z,2.61
2023-03-12T01:24:21.992Z,2.61
2023-03-12T01:25:21.986Z,2.63
2023-03-12T01:26:21.969Z,2.61
2023-03-12T01:27:21.950Z,2.63
2023-03-12T01:28:21.938Z,2.61
2023-03-12T01:29:21.925Z,2.56
2023-03-12T01:30:21.932Z,2.53
2023-03-12T01:31:21.974Z,2.59
2023-03-12T01:32:21.898Z,2.64
2023-03-12T01:33:21.878Z,2.69
2023-03-12T01:34:21.872Z,2.67
2023-03-12T01:35:21.912Z,2.66
2023-03-12T01:36:21.937Z,2.69
2023-03-12T01:37:21.852Z,2.61
2023-03-12T01:38:21.824Z,2.63
2023-03-12T01:39:21.809Z,2.64
2023-03-12T01:40:21.832Z,2.63
2023-03-12T01:41:21.796Z,2.56
2023-03-12T01:42:21.785Z,2.55
2023-03-12T01:43:21.767Z,2.53
2023-03-12T01:44:21.760Z,2.52
2023-03-12T01:45:21.762Z,2.58
2023-03-12T01:46:21.733Z,2.64
2023-03-12T01:47:21.725Z,2.59
2023-03-12T01:48:21.720Z,2.49
2023-03-12T01:49:21.703Z,2.52
2023-03-12T01:50:21.721Z,2.55
2023-03-12T01:51:21.680Z,2.53
2023-03-12T01:52:21.679Z,2.58
2023-03-12T01:53:21.661Z,2.63
2023-03-12T01:54:21.647Z,2.53
2023-03-12T01:55:21.655Z,2.55
2023-03-12T01:56:21.652Z,2.63
2023-03-12T01:57:21.614Z,2.51
2023-03-12T01:58:21.606Z,2.53
2023-03-12T01:59:21.604Z,2.69
2023-03-12T02:00:21.617Z,2.66
2023-03-12T02:01:21.768Z,2.74
2023-03-12T02:02:21.594Z,2.64
2023-03-12T02:03:21.553Z,2.69
2023-03-12T02:04:21.641Z,2.70
2023-03-12T02:05:21.537Z,2.64
2023-03-12T02:06:21.534Z,2.73
2023-03-12T02:07:21.522Z,2.77
2023-03-12T02:08:21.495Z,2.77
2023-03-12T02:09:21.495Z,2.74
2023-03-12T02:10:21.482Z,2.69
2023-03-12T02:11:21.490Z,2.73
2023-03-12T02:12:21.481Z,2.76
2023-03-12T02:13:21.448Z,2.71
2023-03-12T02:14:21.448Z,2.73
2023-03-12T02:15:21.433Z,2.74
2023-03-12T02:16:21.514Z,2.71
2023-03-12T02:17:21.411Z,2.71
2023-03-12T02:18:21.411Z,2.69
2023-03-12T02:19:21.385Z,2.76
2023-03-12T02:20:21.381Z,2.73
2023-03-12T02:21:21.392Z,2.73
2023-03-12T02:22:21.371Z,2.69
2023-03-12T02:23:21.349Z,2.70
2023-03-12T02:24:21.331Z,2.69
2023-03-12T02:25:21.319Z,2.74
2023-03-12T02:26:21.313Z,2.74
2023-03-12T02:27:21.324Z,2.73
2023-03-12T02:28:21.320Z,2.74
2023-03-12T02:29:21.284Z,2.77
2023-03-12T02:30:21.270Z,2.74
2023-03-12T02:31:21.326Z,2.76
2023-03-12T02:32:21.316Z,2.69
2023-03-12T02:33:21.242Z,2.74
2023-03-12T02:34:21.227Z,2.66
2023-03-12T02:35:21.229Z,2.71
2023-03-12T02:36:21.218Z,2.66
2023-03-12T02:37:21.212Z,2.63
2023-03-12T02:38:21.202Z,2.63
2023-03-12T02:39:21.172Z,2.69
2023-03-12T02:40:21.159Z,2.67
2023-03-12T02:41:21.174Z,2.61
2023-03-12T02:42:21.155Z,2.74
2023-03-12T02:43:21.128Z,2.67
2023-03-12T02:44:21.135Z,2.59
2023-03-12T02:45:21.110Z,2.55
2023-03-12T02:46:21.168Z,2.59
2023-03-12T02:47:21.110Z,2.59
2023-03-12T02:48:21.079Z,2.55
2023-03-12T02:49:21.072Z,2.58
2023-03-12T02:50:21.058Z,2.58
2023-03-12T02:51:21.062Z,2.49
2023-03-12T02:52:21.064Z,2.53
2023-03-12T02:53:21.020Z,2.58
2023-03-12T02:54:21.019Z,2.52
2023-03-12T02:55:21.002Z,2.55
2023-03-12T02:56:20.995Z,2.53
2023-03-12T02:57:20.992Z,2.52
2023-03-12T02:58:20.979Z,2.52
2023-03-12T02:59:20.961Z,2.40
2023-03-12T03:00:20.997Z,2.34
2023-03-12T03:01:20.993Z,2.40
2023-03-12T03:02:20.933Z,2.40
2023-03-12T03:03:20.927Z,2.37
2023-03-12T03:04:21.015Z,2.33
2023-03-12T03:05:20.905Z,2.27
2023-03-12T03:06:20.936Z,2.33
2023-03-12T03:07:20.872Z,2.30
2023-03-12T03:08:20.870Z,2.28
2023-03-12T03:09:20.864Z,2.22
2023-03-12T03:10:20.845Z,2.19
2023-03-12T03:11:20.852Z,2.20
2023-03-12T03:12:20.840Z,2.20
2023-03-12T03:13:20.817Z,2.27
2023-03-12T03:14:20.822Z,2.28
2023-03-12T03:15:20.796Z,2.20
2023-03-12T03:16:20.797Z,2.20
2023-03-12T03:17:20.803Z,2.17
2023-03-12T03:18:20.760Z,2.16
2023-03-12T03:19:20.808Z,2.13
2023-03-12T03:20:20.741Z,2.19
2023-03-12T03:21:20.876Z,2.17
2023-03-12T03:22:20.731Z,2.20
2023-03-12T03:23:20.709Z,2.17
2023-03-12T03:24:20.696Z,2.16
2023-03-12T03:25:20.686Z,2.17
2023-03-12T03:26:20.728Z,2.10
2023-03-12T03:27:20.665Z,2.12
2023-03-12T03:28:20.652Z,2.20
2023-03-12T03:29:20.669Z,2.20
2023-03-12T03:30:20.636Z,2.13
2023-03-12T03:31:20.741Z,2.08
2023-03-12T03:32:20.731Z,2.04
2023-03-12T03:33:20.602Z,2.06
2023-03-12T03:34:20.584Z,2.09
2023-03-12T03:35:20.579Z,2.10
2023-03-12T03:36:20.628Z,2.17
2023-03-12T03:37:20.555Z,2.10
2023-03-12T03:38:20.545Z,2.12
2023-03-12T03:39:20.541Z,2.06
2023-03-12T03:40:20.522Z,2.10
2023-03-12T03:41:20.551Z,2.09
2023-03-12T03:42:20.508Z,2.02
2023-03-12T03:43:20.488Z,2.06
2023-03-12T03:44:20.479Z,2.08
2023-03-12T03:45:20.471Z,2.06
2023-03-12T03:46:20.585Z,2.04
2023-03-12T03:47:20.462Z,2.04
2023-03-12T03:48:20.468Z,2.10
2023-03-12T03:49:20.425Z,2.04
2023-03-12T03:50:20.416Z,2.08
2023-03-12T03:51:20.427Z,2.06
2023-03-12T03:52:20.391Z,1.99
2023-03-12T03:53:20.390Z,1.98
2023-03-12T03:54:20.371Z,1.99
2023-03-12T03:55:20.361Z,2.01
2023-03-12T03:56:20.364Z,1.99
2023-03-12T03:57:20.337Z,2.02
2023-03-12T03:58:20.326Z,1.97
2023-03-12T03:59:20.358Z,1.99
2023-03-12T04:00:20.308Z,1.87
2023-03-12T04:01:20.336Z,1.90
2023-03-12T04:02:20.332Z,1.82
2023-03-12T04:03:20.403Z,1.82
2023-03-12T04:04:20.305Z,1.79
2023-03-12T04:05:20.265Z,1.83
2023-03-12T04:06:20.248Z,1.68
2023-03-12T04:07:20.271Z,1.68
2023-03-12T04:08:20.225Z,1.65
2023-03-12T04:09:20.242Z,1.61
2023-03-12T04:10:20.213Z,1.68
2023-03-12T04:11:20.223Z,1.65
2023-03-12T04:12:20.180Z,1.61
2023-03-12T04:13:20.167Z,1.69
2023-03-12T04:14:20.159Z,1.61
2023-03-12T04:15:20.149Z,1.61
2023-03-12T04:16:20.262Z,1.55
2023-03-12T04:17:20.135Z,1.54
2023-03-12T04:18:20.172Z,1.65
2023-03-12T04:19:20.104Z,1.61
2023-03-12T04:20:20.134Z,1.62
2023-03-12T04:21:20.108Z,1.55
2023-03-12T04:22:20.097Z,1.61
2023-03-12T04:23:20.069Z,1.61
2023-03-12T04:24:20.051Z,1.52
2023-03-12T04:25:20.041Z,1.57
2023-03-12T04:26:20.044Z,1.62
2023-03-12T04:27:20.023Z,1.61
2023-03-12T04:28:20.017Z,1.71
2023-03-12T04:29:19.994Z,1.76
2023-03-12T04:30:19.998Z,1.61
2023-03-12T04:31:20.043Z,1.64
2023-03-12T04:32:20.040Z,1.58
2023-03-12T04:33:19.953Z,1.61
2023-03-12T04:34:19.993Z,1.58
2023-03-12T04:35:19.929Z,1.61
2023-03-12T04:36:19.964Z,1.71
2023-03-12T04:37:19.914Z,1.68
2023-03-12T04:38:19.901Z,1.61
2023-03-12T04:39:19.896Z,1.72
2023-03-12T04:40:19.900Z,1.62
2023-03-12T04:41:19.893Z,1.60
2023-03-12T04:42:19.869Z,1.60
2023-03-12T04:43:19.847Z,1.62
2023-03-12T04:44:19.856Z,1.58
2023-03-12T04:45:19.829Z,1.60
2023-03-12T04:46:19.880Z,1.54
2023-03-12T04:47:19.817Z,1.61
2023-03-12T04:48:19.805Z,1.51
2023-03-12T04:49:19.784Z,1.46
2023-03-12T04:50:19.784Z,1.37
2023-03-12T04:51:19.766Z,1.37
2023-03-12T04:52:19.805Z,1.34
2023-03-12T04:53:19.788Z,1.39
2023-03-12T04:54:19.735Z,1.46
2023-03-12T04:55:19.728Z,1.47
2023-03-12T04:56:19.722Z,1.46
2023-03-12T04:57:19.764Z,1.42
2023-03-12T04:58:19.697Z,1.54
2023-03-12T04:59:19.682Z,1.54
2023-03-12T05:00:19.676Z,1.60
2023-03-12T05:01:19.666Z,1.60
2023-03-12T05:02:19.679Z,1.62
2023-03-12T05:03:19.641Z,1.55
2023-03-12T05:04:19.631Z,1.46
2023-03-12T05:05:19.629Z,1.47
2023-03-12T05:06:19.610Z,1.47
2023-03-12T05:07:19.636Z,1.46
2023-03-12T05:08:19.613Z,1.47
2023-03-12T05:09:19.584Z,1.50
2023-03-12T05:10:19.576Z,1.40
2023-03-12T05:11:19.568Z,1.29
2023-03-12T05:12:19.574Z,1.28
2023-03-12T05:13:19.544Z,1.33
2023-03-12T05:14:19.536Z,1.40
2023-03-12T05:15:19.530Z,1.52
2023-03-12T05:16:19.601Z,1.47
2023-03-12T05:17:19.534Z,1.46
2023-03-12T05:18:19.488Z,1.37
2023-03-12T05:19:19.471Z,1.34
2023-03-12T05:20:19.459Z,1.36
2023-03-12T05:21:19.457Z,1.36
2023-03-12T05:22:19.464Z,1.28
2023-03-12T05:23:19.428Z,1.33
2023-03-12T05:24:19.438Z,1.29
2023-03-12T05:25:19.405Z,1.25
2023-03-12T05:26:19.399Z,1.28
2023-03-12T05:27:19.413Z,1.22
2023-03-12T05:28:19.392Z,1.22
2023-03-12T05:29:19.364Z,1.21
2023-03-12T05:30:19.360Z,1.25
2023-03-12T05:31:19.437Z,1.26
2023-03-12T05:32:19.371Z,1.26
2023-03-12T05:33:19.323Z,1.34
2023-03-12T05:34:19.324Z,1.33
2023-03-12T05:35:19.302Z,1.40
2023-03-12T05:36:19.292Z,1.52
2023-03-12T05:37:19.289Z,1.46
2023-03-12T05:38:19.274Z,1.47
2023-03-12T05:39:19.260Z,1.57
2023-03-12T05:40:19.273Z,1.51
2023-03-12T05:41:19.243Z,1.60
2023-03-12T05:42:19.242Z,1.62
2023-03-12T05:43:19.217Z,1.61
2023-03-12T05:44:19.222Z,1.57
2023-03-12T05:45:19.199Z,1.60
2023-03-12T05:46:19.190Z,1.61
2023-03-12T05:47:19.202Z,1.73
2023-03-12T05:48:19.170Z,1.72
2023-03-12T05:49:19.153Z,1.83
2023-03-12T05:50:19.142Z,1.85
2023-03-12T05:51:19.134Z,1.99
2023-03-12T05:52:19.142Z,1.99
2023-03-12T05:53:19.113Z,2.10
2023-03-12T05:54:19.099Z,2.23
2023-03-12T05:55:19.089Z,2.27
2023-03-12T05:56:19.092Z,2.28
2023-03-12T05:57:19.102Z,2.49
2023-03-12T05:58:19.056Z,2.58
2023-03-12T05:59:19.047Z,2.53
2023-03-12T06:00:19.031Z,2.70
2023-03-12T06:01:19.022Z,2.97
2023-03-12T06:02:19.073Z,3.12
2023-03-12T06:03:19.013Z,3.21
2023-03-12T06:04:18.999Z,3.36
2023-03-12T06:05:18.979Z,3.47
2023-03-12T06:06:18.972Z,3.54
2023-03-12T06:07:19.002Z,3.68
2023-03-12T06:08:18.946Z,3.76
2023-03-12T06:09:18.939Z,3.86
2023-03-12T06:10:18.921Z,4.00
2023-03-12T06:11:18.911Z,4.21
2023-03-12T06:12:18.932Z,4.29
2023-03-12T06:13:18.893Z,4.51
2023-03-12T06:14:18.884Z,4.61
2023-03-12T06:15:18.890Z,4.75
2023-03-12T06:16:18.909Z,4.77
2023-03-12T06:17:18.874Z,4.79
2023-03-12T06:18:18.834Z,4.99
2023-03-12T06:19:18.834Z,5.16
2023-03-12T06:20:18.812Z,5.32
2023-03-12T06:21:18.809Z,5.57
2023-03-12T06:22:18.807Z,5.70
2023-03-12T06:23:21.481Z,5.86
2023-03-12T06:24:18.768Z,6.10
2023-03-12T06:25:18.762Z,6.33
2023-03-12T06:26:18.748Z,6.41
2023-03-12T06:27:18.830Z,6.66
2023-03-12T06:28:18.747Z,6.76
2023-03-12T06:29:18.735Z,6.83
2023-03-12T06:30:18.707Z,6.87
2023-03-12T06:31:18.761Z,7.05
2023-03-12T06:32:18.748Z,7.24
2023-03-12T06:33:18.675Z,7.31
2023-03-12T06:34:18.685Z,7.40
2023-03-12T06:35:18.651Z,7.49
2023-03-12T06:36:18.638Z,7.53
2023-03-12T06:37:18.665Z,7.74
2023-03-12T06:38:18.616Z,7.78
2023-03-12T06:39:18.609Z,7.90
2023-03-12T06:40:18.594Z,7.82
2023-03-12T06:41:18.589Z,7.89
2023-03-12T06:42:18.605Z,7.96
2023-03-12T06:43:18.563Z,8.37
2023-03-12T06:44:18.594Z,8.48
2023-03-12T06:45:18.538Z,8.79
2023-03-12T06:46:18.625Z,9.01
2023-03-12T06:47:18.546Z,9.28
2023-03-12T06:48:18.506Z,9.43
2023-03-12T06:49:18.494Z,9.63
2023-03-12T06:50:18.485Z,9.83
2023-03-12T06:51:18.488Z,10.06
2023-03-12T06:52:18.474Z,10.40
2023-03-12T06:53:18.457Z,9.93
2023-03-12T06:54:18.449Z,9.83
2023-03-12T06:55:18.430Z,9.67
2023-03-12T06:56:18.417Z,9.67
2023-03-12T06:57:18.453Z,9.66
2023-03-12T06:58:18.394Z,9.81
2023-03-12T06:59:18.409Z,9.97
2023-03-12T07:00:18.399Z,10.19
2023-03-12T07:01:18.363Z,10.30
2023-03-12T07:02:18.439Z,10.34
2023-03-12T07:03:18.343Z,10.34
2023-03-12T07:04:18.337Z,10.12
2023-03-12T07:05:18.374Z,10.12
2023-03-12T07:06:18.314Z,10.15
2023-03-12T07:07:18.324Z,10.18
2023-03-12T07:08:18.288Z,10.34
2023-03-12T07:09:18.288Z,10.68
2023-03-12T07:10:18.276Z,10.80
2023-03-12T07:11:18.261Z,11.24
2023-03-12T07:12:18.267Z,11.31
2023-03-12T07:13:18.235Z,10.96
2023-03-12T07:14:18.225Z,10.83
2023-03-12T07:15:18.221Z,10.71
2023-03-12T07:16:18.279Z,10.39
2023-03-12T07:17:18.257Z,10.09
2023-03-12T07:18:18.183Z,9.97
2023-03-12T07:19:18.186Z,9.99
2023-03-12T07:20:18.165Z,10.12
2023-03-12T07:21:18.155Z,10.24
2023-03-12T07:22:18.158Z,10.42
2023-03-12T07:23:18.131Z,10.63
2023-03-12T07:24:18.120Z,10.83
2023-03-12T07:25:19.108Z,11.17
2023-03-12T07:26:18.102Z,11.01
2023-03-12T07:27:18.102Z,11.31
2023-03-12T07:28:18.077Z,11.47
2023-03-12T07:29:18.065Z,11.43
2023-03-12T07:30:18.060Z,11.49
2023-03-12T07:31:18.055Z,11.64
2023-03-12T07:32:18.107Z,11.74
2023-03-12T07:33:18.136Z,11.87
2023-03-12T07:34:18.164Z,11.82
2023-03-12T07:35:18.066Z,11.99
2023-03-12T07:36:18.203Z,12.05
2023-03-12T07:37:17.995Z,12.12
2023-03-12T07:38:18.081Z,12.21
2023-03-12T07:39:17.961Z,12.42
2023-03-12T07:40:17.955Z,12.12
2023-03-12T07:41:17.991Z,12.20
2023-03-12T07:42:17.979Z,12.06
2023-03-12T07:43:20.358Z,12.08
2023-03-12T07:44:17.910Z,12.39
2023-03-12T07:45:17.914Z,12.52
2023-03-12T07:46:18.009Z,12.64
2023-03-12T07:47:24.216Z,12.48
2023-03-12T07:48:18.926Z,12.64
2023-03-12T07:49:17.856Z,12.79
2023-03-12T07:50:17.937Z,12.82
2023-03-12T07:51:17.823Z,12.66
2023-03-12T07:52:17.890Z,12.70
2023-03-12T07:53:17.820Z,12.78
2023-03-12T07:54:17.787Z,12.93
2023-03-12T07:55:17.867Z,13.09
2023-03-12T07:56:17.986Z,13.37
2023-03-12T07:57:17.922Z,13.43
2023-03-12T07:58:17.938Z,13.17
2023-03-12T07:59:17.818Z,12.88
2023-03-12T08:00:17.762Z,13.06
2023-03-12T08:01:17.816Z,13.22
2023-03-12T08:02:17.828Z,13.07
2023-03-12T08:03:17.915Z,13.02
2023-03-12T08:04:17.852Z,13.06
2023-03-12T08:05:17.670Z,13.06
2023-03-12T08:06:17.764Z,13.09
2023-03-12T08:07:17.697Z,13.17
2023-03-12T08:08:17.657Z,13.17
2023-03-12T08:09:17.622Z,13.24
2023-03-12T08:10:17.664Z,13.36
2023-03-12T08:11:17.599Z,13.47
2023-03-12T08:12:17.682Z,13.47
2023-03-12T08:13:17.621Z,13.40
2023-03-12T08:14:17.596Z,13.29
2023-03-12T08:15:17.566Z,13.44
2023-03-12T08:16:17.565Z,13.32
2023-03-12T08:17:17.548Z,13.41
2023-03-12T08:18:17.552Z,13.58
2023-03-12T08:19:17.512Z,13.62
2023-03-12T08:20:17.552Z,13.69
2023-03-12T08:21:17.495Z,13.71
2023-03-12T08:22:17.505Z,13.95
2023-03-12T08:23:17.484Z,13.83
2023-03-12T08:24:17.458Z,13.62
2023-03-12T08:25:17.455Z,13.51
2023-03-12T08:26:17.438Z,13.51
2023-03-12T08:27:17.427Z,13.47
2023-03-12T08:28:17.440Z,13.59
2023-03-12T08:29:17.402Z,13.59
2023-03-12T08:30:17.405Z,13.62
2023-03-12T08:31:17.419Z,13.95
2023-03-12T08:32:17.507Z,13.99
2023-03-12T08:33:17.432Z,13.89
2023-03-12T08:34:17.347Z,13.79
2023-03-12T08:35:17.340Z,14.04
2023-03-12T08:36:17.348Z,14.12
2023-03-12T08:37:17.315Z,14.31
2023-03-12T08:38:17.329Z,14.17
2023-03-12T08:39:17.310Z,14.31
2023-03-12T08:40:17.326Z,14.72
2023-03-12T08:41:17.283Z,14.81
2023-03-12T08:42:17.260Z,14.88
2023-03-12T08:43:17.275Z,14.86
2023-03-12T08:44:17.252Z,14.62
2023-03-12T08:45:17.238Z,14.64
2023-03-12T08:46:17.290Z,14.35
2023-03-12T08:47:17.233Z,13.83
2023-03-12T08:48:17.244Z,13.62
2023-03-12T08:49:17.194Z,13.70
2023-03-12T08:50:17.180Z,13.58
2023-03-12T08:51:17.212Z,13.52
2023-03-12T08:52:17.198Z,13.70
2023-03-12T08:53:17.174Z,13.67
2023-03-12T08:54:17.138Z,13.73
2023-03-12T08:55:17.123Z,13.32
2023-03-12T08:56:17.113Z,13.06
2023-03-12T08:57:17.107Z,12.71
2023-03-12T08:58:17.116Z,12.39
2023-03-12T08:59:17.082Z,12.21
2023-03-12T09:00:17.069Z,11.82
2023-03-12T09:01:17.077Z,11.80
2023-03-12T09:02:17.070Z,11.77
2023-03-12T09:03:17.082Z,11.70
2023-03-12T09:04:17.074Z,11.47
2023-03-12T09:05:17.014Z,11.25
2023-03-12T09:06:17.131Z,11.34
2023-03-12T09:07:17.019Z,11.50
2023-03-12T09:08:17.018Z,11.78
2023-03-12T09:09:16.971Z,11.94
2023-03-12T09:10:16.967Z,12.06
2023-03-12T09:11:16.951Z,11.99
2023-03-12T09:12:16.951Z,12.05
2023-03-12T09:13:16.943Z,11.97
2023-03-12T09:15:17.910Z,11.99
2023-03-12T09:16:16.930Z,12.20
2023-03-12T09:17:16.944Z,12.11
2023-03-12T09:18:16.944Z,11.93
2023-03-12T09:19:16.913Z,11.80
2023-03-12T09:20:16.858Z,12.05
2023-03-12T09:21:16.852Z,11.93
2023-03-12T09:22:16.838Z,12.11
2023-03-12T09:23:16.829Z,12.45
2023-03-12T09:24:16.840Z,12.49
2023-03-12T09:25:16.805Z,12.93
2023-03-12T09:26:16.789Z,13.20
2023-03-12T09:27:16.773Z,13.81
2023-03-12T09:28:16.785Z,14.38
2023-03-12T09:29:16.752Z,14.93
2023-03-12T09:30:16.741Z,15.24
2023-03-12T09:31:16.814Z,15.08
2023-03-12T09:32:16.815Z,14.80
2023-03-12T09:33:16.743Z,14.64
2023-03-12T09:34:16.693Z,14.35
2023-03-12T09:35:16.684Z,13.96
2023-03-12T09:36:16.670Z,14.16
2023-03-12T09:37:16.713Z,13.98
2023-03-12T09:38:16.688Z,13.79
2023-03-12T09:39:16.645Z,13.63
2023-03-12T09:40:16.648Z,13.47
2023-03-12T09:41:16.620Z,12.95
2023-03-12T09:42:16.603Z,12.64
2023-03-12T09:43:16.614Z,12.59
2023-03-12T09:44:16.582Z,12.48
2023-03-12T09:45:16.571Z,12.49
2023-03-12T09:46:16.586Z,12.67
2023-03-12T09:47:16.567Z,12.82
2023-03-12T09:48:16.539Z,12.95
2023-03-12T09:49:16.527Z,12.88
2023-03-12T09:50:16.515Z,13.06
2023-03-12T09:51:16.504Z,13.36
2023-03-12T09:52:16.505Z,13.83
2023-03-12T09:53:16.490Z,14.65
2023-03-12T09:54:16.486Z,15.45
2023-03-12T09:55:16.474Z,15.49
2023-03-12T09:56:16.475Z,15.57
2023-03-12T09:57:16.458Z,15.54
2023-03-12T09:58:16.432Z,15.27
2023-03-12T09:59:16.419Z,15.20
2023-03-12T10:00:16.410Z,15.24
2023-03-12T10:01:16.407Z,15.24
2023-03-12T10:02:16.416Z,15.35
2023-03-12T10:03:16.382Z,15.28
2023-03-12T10:04:16.462Z,15.27
2023-03-12T10:05:16.440Z,14.93
2023-03-12T10:06:16.422Z,14.95
2023-03-12T10:07:16.348Z,14.43
2023-03-12T10:08:23.937Z,14.21
2023-03-12T10:09:17.314Z,13.91
2023-03-12T10:10:16.305Z,14.07
2023-03-12T10:11:16.291Z,14.14
2023-03-12T10:12:16.304Z,13.94
2023-03-12T10:13:16.282Z,14.14
2023-03-12T10:14:23.938Z,13.92
2023-03-12T10:15:17.247Z,14.31
2023-03-12T10:16:16.394Z,14.35
2023-03-12T10:17:16.228Z,14.19
2023-03-12T10:18:16.458Z,14.10
2023-03-12T10:19:16.206Z,13.88
2023-03-12T10:20:16.202Z,13.62
2023-03-12T10:21:16.206Z,13.61
2023-03-12T10:22:16.176Z,13.62
2023-03-12T10:23:16.202Z,13.56
2023-03-12T10:24:16.150Z,13.56
2023-03-12T10:25:16.141Z,13.70
2023-03-12T10:26:16.132Z,13.80
2023-03-12T10:27:16.120Z,13.83
2023-03-12T10:28:16.139Z,13.70
2023-03-12T10:29:16.098Z,13.22
2023-03-12T10:30:16.089Z,13.18
2023-03-12T10:31:16.129Z,13.07
2023-03-12T10:32:16.096Z,13.03
2023-03-12T10:33:16.105Z,13.00
2023-03-12T10:34:16.051Z,12.84
2023-03-12T10:35:16.070Z,12.70
2023-03-12T10:36:16.031Z,12.84
2023-03-12T10:37:16.009Z,12.84
2023-03-12T10:38:16.015Z,12.70
2023-03-12T10:39:16.025Z,12.48
2023-03-12T10:40:15.984Z,12.37
2023-03-12T10:41:15.965Z,12.24
2023-03-12T10:42:15.952Z,12.05
2023-03-12T10:43:15.975Z,11.85
2023-03-12T10:44:15.974Z,11.96
2023-03-12T10:45:15.920Z,11.75
2023-03-12T10:46:15.928Z,11.57
2023-03-12T10:47:15.901Z,11.56
2023-03-12T10:48:15.915Z,11.56
2023-03-12T10:49:15.879Z,11.53
2023-03-12T10:50:15.870Z,11.41
2023-03-12T10:51:15.850Z,11.50
2023-03-12T10:52:15.847Z,11.39
2023-03-12T10:53:15.851Z,11.36
2023-03-12T10:54:15.820Z,11.31
2023-03-12T10:55:15.808Z,11.28
2023-03-12T10:56:15.803Z,11.31
2023-03-12T10:57:15.808Z,11.16
2023-03-12T10:58:15.782Z,11.17
2023-03-12T10:59:15.763Z,11.11
2023-03-12T11:00:15.780Z,11.09
2023-03-12T11:01:15.782Z,10.91
2023-03-12T11:02:15.761Z,10.91
2023-03-12T11:03:15.762Z,10.78
2023-03-12T11:04:15.712Z,10.77
2023-03-12T11:05:15.702Z,10.81
2023-03-12T11:06:15.875Z,10.74
2023-03-12T11:07:15.680Z,10.62
2023-03-12T11:08:15.691Z,10.63
2023-03-12T11:09:17.352Z,10.56
2023-03-12T11:10:15.646Z,10.60
2023-03-12T11:11:15.637Z,10.60
2023-03-12T11:12:15.660Z,10.55
2023-03-12T11:13:15.626Z,10.59
2023-03-12T11:14:15.633Z,10.52
2023-03-12T11:15:15.591Z,10.40
2023-03-12T11:16:15.631Z,10.15
2023-03-12T11:17:15.568Z,10.07
2023-03-12T11:18:15.578Z,10.09
2023-03-12T11:19:15.547Z,10.12
2023-03-12T11:20:15.536Z,10.24
2023-03-12T11:21:15.523Z,10.15
2023-03-12T11:22:15.544Z,10.04
2023-03-12T11:23:15.499Z,10.00
2023-03-12T11:24:15.493Z,10.00
2023-03-12T11:25:15.480Z,10.09
2023-03-12T11:26:15.513Z,10.07
2023-03-12T11:27:15.503Z,10.03
2023-03-12T11:28:15.473Z,10.00
2023-03-12T11:29:15.518Z,9.99
2023-03-12T11:30:15.506Z,9.96
2023-03-12T11:31:15.551Z,10.07
2023-03-12T11:32:15.544Z,10.19
2023-03-12T11:33:15.405Z,10.21
2023-03-12T11:34:15.382Z,10.12
2023-03-12T11:35:15.382Z,10.10
2023-03-12T11:36:15.361Z,10.07
2023-03-12T11:37:15.365Z,10.09
2023-03-12T11:38:15.338Z,10.10
2023-03-12T11:39:15.327Z,10.04
2023-03-12T11:40:15.317Z,10.14
2023-03-12T11:41:15.303Z,10.09
2023-03-12T11:42:15.353Z,9.86
2023-03-12T11:43:15.284Z,9.78
2023-03-12T11:44:15.293Z,9.66
2023-03-12T11:45:15.279Z,9.66
2023-03-12T11:46:15.287Z,9.58
2023-03-12T11:47:15.291Z,9.57
2023-03-12T11:48:15.290Z,9.53
2023-03-12T11:49:15.233Z,9.42
2023-03-12T11:50:15.233Z,9.60
2023-03-12T11:51:15.200Z,9.76
2023-03-12T11:52:15.189Z,9.63
2023-03-12T11:53:15.178Z,9.56
2023-03-12T11:54:15.191Z,9.45
2023-03-12T11:55:16.568Z,9.42
2023-03-12T11:56:15.151Z,9.50
2023-03-12T11:57:15.134Z,9.42
2023-03-12T11:58:15.125Z,9.57
2023-03-12T11:59:15.135Z,9.73
2023-03-12T12:00:15.099Z,9.75
2023-03-12T12:01:15.089Z,9.81
2023-03-12T12:02:15.113Z,9.83
2023-03-12T12:03:15.105Z,9.89
2023-03-12T12:04:15.091Z,9.97
2023-03-12T12:05:15.047Z,9.96
2023-03-12T12:06:15.033Z,9.89
2023-03-12T12:07:15.018Z,9.82
2023-03-12T12:08:15.010Z,9.70
2023-03-12T12:09:15.060Z,9.78
2023-03-12T12:10:14.987Z,9.68
2023-03-12T12:11:14.975Z,9.70
2023-03-12T12:12:14.970Z,9.66
2023-03-12T12:13:14.957Z,9.76
2023-03-12T12:14:14.959Z,9.79
2023-03-12T12:15:14.941Z,9.71
2023-03-12T12:16:14.981Z,9.64
2023-03-12T12:17:14.937Z,9.60
2023-03-12T12:18:14.902Z,9.64
2023-03-12T12:19:14.905Z,9.64
2023-03-12T12:20:14.903Z,9.48
2023-03-12T12:21:14.866Z,9.43
2023-03-12T12:22:14.860Z,9.49
2023-03-12T12:23:14.851Z,9.50
2023-03-12T12:24:17.773Z,9.35
2023-03-12T12:25:14.834Z,9.32
2023-03-12T12:26:14.819Z,9.25
2023-03-12T12:27:14.803Z,9.28
2023-03-12T12:28:14.789Z,9.31
2023-03-12T12:29:14.806Z,9.34
2023-03-12T12:30:14.768Z,9.45
2023-03-12T12:31:14.800Z,9.43
2023-03-12T12:32:14.847Z,9.43
2023-03-12T12:33:14.732Z,9.42
2023-03-12T12:34:14.725Z,9.31
2023-03-12T12:35:14.770Z,9.43
2023-03-12T12:36:14.776Z,9.42
2023-03-12T12:37:14.722Z,9.42
2023-03-12T12:38:14.680Z,9.35
2023-03-12T12:39:14.671Z,9.39
2023-03-12T12:40:14.659Z,9.25
2023-03-12T12:41:14.645Z,9.24
2023-03-12T12:42:14.657Z,9.28
2023-03-12T12:43:14.628Z,9.27
2023-03-12T12:44:14.641Z,9.06
2023-03-12T12:45:14.604Z,9.20
2023-03-12T12:46:14.684Z,9.18
2023-03-12T12:47:15.049Z,9.16
2023-03-12T12:48:15.319Z,9.20
2023-03-12T12:49:14.589Z,9.20
2023-03-12T12:50:14.583Z,9.23
2023-03-12T12:51:14.537Z,9.27
2023-03-12T12:52:14.545Z,9.21
2023-03-12T12:53:14.515Z,9.23
2023-03-12T12:54:14.532Z,9.15
2023-03-12T12:55:14.496Z,9.12
2023-03-12T12:56:15.517Z,9.21
2023-03-12T12:57:14.470Z,9.18
2023-03-12T12:58:14.490Z,9.20
2023-03-12T12:59:14.491Z,9.28
2023-03-12T13:00:14.457Z,9.27
2023-03-12T13:01:14.458Z,9.31
2023-03-12T13:02:14.420Z,9.20
2023-03-12T13:03:14.451Z,9.18
2023-03-12T13:04:14.434Z,9.10
2023-03-12T13:05:14.389Z,9.04
2023-03-12T13:06:14.378Z,9.12
2023-03-12T13:07:14.368Z,8.94
2023-03-12T13:08:14.373Z,8.93
2023-03-12T13:09:14.376Z,8.96
2023-03-12T13:10:14.335Z,8.91